< < Back
Terminal Aerodrome Forecast


Current Version              Previous Versions:   1  2  3  4  5  6  7  8  9  

Terminal Aerodrome Forecast

551
FTUS42 KJAX 261100 AAA
TAFGNV
TAF AMD
KGNV 261150Z 2612/2712 34012KT 6SM -RA BR SCT008 OVC025
      TEMPO 2612/2614 3SM -RA BR OVC006
     FM261400 31010G18KT P6SM VCSH SCT015 BKN030
     FM261800 29011KT P6SM SCT025 SCT250
     FM262300 VRB03KT P6SM SKC=



Latest METAR

143
SAUS70 KWBC 261500 RRC
MTRGNV
METAR KGNV 261453Z 30005KT 10SM BKN012 OVC046 10/08 A3014 RMK AO2 SLP207
60001 T01000083 51037


USA.gov is the U.S. government's official web portal to all federal, state and local government web resources and services.